Time;durP1;ratioP1;P1;durP2;ratioP2;P2;SDS_P1;SDS_P2;PMS_P1;PMS_P2;Temp;Humidity;BMP_temperature;BMP_pressure;BME280_temperature;BME280_humidity;BME280_pressure;Samples;Min_cycle;Max_cycle;Signal;HPM_P1;HPM_P2
2022/03/13 00:02:09;;;;;;;6.82;2.33;;;20.10;52.70;;;;;;4547509;31;20128;-67
2022/03/13 00:04:36;;;;;;;7.88;2.00;;;20.10;52.80;;;;;;4547119;31;20134;-67
2022/03/13 00:07:09;;;;;;;7.32;2.15;;;20.10;52.80;;;;;;4547357;31;20138;-67
2022/03/13 00:09:35;;;;;;;8.05;2.15;;;20.00;52.80;;;;;;4547887;31;20122;-67
2022/03/13 00:12:08;;;;;;;5.97;1.80;;;20.00;52.70;;;;;;4546524;31;20115;-67
2022/03/13 00:14:34;;;;;;;6.13;2.00;;;20.00;52.70;;;;;;4547837;31;20607;-66
2022/03/13 00:17:00;;;;;;;3.88;2.00;;;20.00;52.70;;;;;;4546841;31;20136;-67
2022/03/13 00:19:28;;;;;;;5.65;2.03;;;20.00;52.70;;;;;;4547256;31;20196;-67
2022/03/13 00:21:54;;;;;;;7.38;2.13;;;20.00;52.70;;;;;;4547230;31;20123;-66
2022/03/13 00:24:22;;;;;;;7.55;2.15;;;20.00;52.70;;;;;;4546898;31;20193;-67
2022/03/13 00:26:49;;;;;;;7.13;2.05;;;19.90;52.70;;;;;;4547433;31;20132;-67
2022/03/13 00:29:15;;;;;;;6.35;2.20;;;19.90;52.70;;;;;;4546486;31;20137;-67
2022/03/13 00:31:41;;;;;;;5.65;1.98;;;19.90;52.70;;;;;;4533169;31;20557;-67
2022/03/13 00:34:08;;;;;;;5.07;2.08;;;19.90;52.70;;;;;;4546616;31;20445;-67
2022/03/13 00:36:37;;;;;;;4.60;2.00;;;19.90;52.60;;;;;;4547222;31;20184;-67
2022/03/13 00:39:03;;;;;;;4.30;2.05;;;19.90;52.70;;;;;;4532504;31;20197;-66
2022/03/13 00:41:29;;;;;;;5.88;2.10;;;19.90;52.70;;;;;;4546626;31;20167;-67
2022/03/13 00:43:55;;;;;;;5.55;2.15;;;19.90;52.60;;;;;;4547315;31;20327;-67
2022/03/13 00:46:21;;;;;;;3.58;1.80;;;19.90;52.70;;;;;;4545999;31;20116;-67
2022/03/13 00:48:47;;;;;;;7.60;2.40;;;19.90;52.70;;;;;;4547156;31;20135;-66
2022/03/13 00:51:15;;;;;;;4.65;2.03;;;19.80;52.60;;;;;;4546273;31;20143;-67
2022/03/13 00:53:44;;;;;;;6.05;1.90;;;19.80;52.60;;;;;;4546836;31;20279;-66
2022/03/13 00:56:10;;;;;;;4.38;2.00;;;19.80;52.60;;;;;;4546520;31;20193;-67
2022/03/13 00:58:40;;;;;;;3.88;1.67;;;19.80;52.60;;;;;;4546367;31;20594;-67
2022/03/13 01:01:07;;;;;;;5.70;1.80;;;19.80;52.60;;;;;;4547289;31;20145;-66
2022/03/13 01:03:36;;;;;;;5.85;2.00;;;19.80;52.60;;;;;;4545624;31;20196;-67
2022/03/13 01:06:05;;;;;;;7.55;1.98;;;19.80;52.60;;;;;;4546001;31;20142;-66
2022/03/13 01:08:31;;;;;;;6.97;1.80;;;19.80;52.60;;;;;;4531414;31;20116;-67
2022/03/13 01:10:58;;;;;;;6.35;2.00;;;19.70;52.60;;;;;;4546570;31;20546;-67
2022/03/13 01:13:25;;;;;;;6.10;1.95;;;19.70;52.60;;;;;;4546285;31;20147;-67
2022/03/13 01:15:58;;;;;;;4.00;1.83;;;19.70;52.50;;;;;;4545890;31;20131;-67
2022/03/13 01:18:24;;;;;;;;;;;19.70;52.50;;;;;;4547638;31;20143;-67
2022/03/13 01:20:50;;;;;;;3.78;1.80;;;19.70;52.50;;;;;;4545533;31;20149;-67
2022/03/13 01:23:16;;;;;;;5.38;1.80;;;19.70;52.50;;;;;;4546605;31;20115;-66
2022/03/13 01:25:42;;;;;;;6.85;1.80;;;19.70;52.60;;;;;;4531229;31;20210;-66
2022/03/13 01:28:08;;;;;;;6.80;2.33;;;19.70;52.60;;;;;;4531664;31;20265;-66
2022/03/13 01:30:34;;;;;;;7.32;2.05;;;19.60;52.50;;;;;;4546134;31;20472;-67
2022/03/13 01:33:00;;;;;;;6.63;2.15;;;19.60;52.50;;;;;;4545603;31;20492;-69
2022/03/13 01:35:26;;;;;;;5.45;1.85;;;19.60;52.50;;;;;;4546620;31;20131;-69
2022/03/13 01:37:53;;;;;;;3.65;1.60;;;19.60;52.50;;;;;;4530694;31;20185;-69
2022/03/13 01:40:23;;;;;;;3.05;1.58;;;19.60;52.50;;;;;;4531992;31;20640;-69
2022/03/13 01:42:51;;;;;;;3.85;1.58;;;19.60;52.50;;;;;;4531133;31;20144;-69
2022/03/13 01:45:19;;;;;;;4.88;1.77;;;19.60;53.50;;;;;;4545951;31;20139;-69
2022/03/13 01:47:46;;;;;;;3.78;1.80;;;19.60;52.50;;;;;;4531413;31;20200;-69
2022/03/13 01:50:13;;;;;;;4.03;1.60;;;19.60;52.50;;;;;;4531141;31;20220;-69
2022/03/13 01:52:45;;;;;;;4.15;1.60;;;19.60;52.50;;;;;;4531854;31;20588;-68
2022/03/13 01:55:11;;;;;;;3.40;1.83;;;19.60;52.40;;;;;;4545074;31;20146;-69
2022/03/13 01:57:37;;;;;;;4.15;1.92;;;19.50;52.40;;;;;;4531453;31;20223;-69
2022/03/13 02:00:07;;;;;;;3.63;1.48;;;19.50;52.50;;;;;;4530770;31;20232;-69
2022/03/13 02:02:34;;;;;;;5.63;1.67;;;19.50;52.50;;;;;;4545641;31;20131;-69
2022/03/13 02:05:00;;;;;;;3.50;1.75;;;19.50;52.50;;;;;;4531443;31;20139;-69
2022/03/13 02:07:29;;;;;;;5.20;2.03;;;19.50;52.50;;;;;;4530429;31;20131;-69
2022/03/13 02:09:55;;;;;;;3.17;1.90;;;19.50;52.50;;;;;;4545997;31;20154;-69
2022/03/13 02:12:24;;;;;;;3.67;1.40;;;19.50;52.50;;;;;;4530411;31;20153;-69
2022/03/13 02:14:51;;;;;;;3.50;1.60;;;19.50;52.50;;;;;;4545810;31;20150;-69
2022/03/13 02:17:28;;;;;;;4.78;1.85;;;19.40;52.40;;;;;;4545118;31;20182;-69
2022/03/13 02:19:55;;;;;;;2.58;1.45;;;19.40;52.40;;;;;;4545359;31;20457;-69
2022/03/13 02:22:21;;;;;;;4.85;1.67;;;19.40;52.50;;;;;;4531431;31;20244;-69
2022/03/13 02:24:51;;;;;;;3.30;1.90;;;19.40;52.50;;;;;;4530254;31;20111;-69
2022/03/13 02:27:23;;;;;;;3.60;1.58;;;19.40;52.50;;;;;;4531297;31;20138;-69
2022/03/13 02:29:49;;;;;;;3.80;1.77;;;19.40;52.40;;;;;;4530604;31;20297;-69
2022/03/13 02:32:17;;;;;;;2.88;1.60;;;19.40;52.40;;;;;;4531012;31;20184;-69
2022/03/13 02:34:44;;;;;;;3.42;1.60;;;19.40;52.50;;;;;;4531082;31;20261;-69
2022/03/13 02:37:41;;;;;;;4.82;1.83;;;19.40;52.50;;;;;;4545229;31;20186;-69
2022/03/13 02:40:16;;;;;;;3.13;1.60;;;19.40;52.40;;;;;;4531269;31;20127;-69
2022/03/13 02:42:42;;;;;;;5.60;1.77;;;19.30;52.40;;;;;;4530443;31;20281;-69
2022/03/13 02:45:08;;;;;;;3.85;1.80;;;19.40;52.40;;;;;;4531022;31;20176;-69
2022/03/13 02:47:34;;;;;;;3.35;1.42;;;19.30;52.40;;;;;;4545327;31;20148;-69
2022/03/13 02:50:00;;;;;;;3.22;1.55;;;19.30;52.40;;;;;;4517331;31;20157;-69
2022/03/13 02:52:26;;;;;;;3.10;1.60;;;19.30;52.40;;;;;;4531165;31;20155;-69
2022/03/13 02:54:52;;;;;;;5.18;1.70;;;19.30;52.40;;;;;;4516773;31;20193;-69
2022/03/13 02:57:18;;;;;;;3.22;1.63;;;19.30;52.40;;;;;;4517800;31;20148;-69
2022/03/13 02:59:44;;;;;;;3.13;1.40;;;19.30;52.40;;;;;;4544697;31;20127;-69
2022/03/13 03:02:10;;;;;;;3.85;1.50;;;19.30;52.40;;;;;;4545375;31;20120;-69
2022/03/13 03:04:36;;;;;;;3.58;1.90;;;19.30;52.40;;;;;;4544830;31;20339;-68
2022/03/13 03:07:04;;;;;;;4.35;1.70;;;19.30;52.40;;;;;;4517152;31;20131;-69
2022/03/13 03:09:32;;;;;;;4.93;1.50;;;19.30;52.40;;;;;;4545560;31;20583;-68
2022/03/13 03:11:59;;;;;;;3.13;1.65;;;19.20;52.40;;;;;;4544375;31;20142;-69
2022/03/13 03:14:25;;;;;;;3.35;1.67;;;19.20;52.40;;;;;;4545585;31;20142;-69
2022/03/13 03:16:53;;;;;;;2.90;1.60;;;19.20;52.40;;;;;;4529955;31;20186;-69
2022/03/13 03:19:18;;;;;;;3.50;1.55;;;19.20;52.40;;;;;;4545112;31;20135;-69
2022/03/13 03:21:44;;;;;;;3.80;1.70;;;19.20;52.40;;;;;;4544041;31;20127;-69
2022/03/13 03:24:16;;;;;;;2.22;1.55;;;19.20;52.40;;;;;;4530472;31;20134;-69
2022/03/13 03:26:42;;;;;;;2.58;1.30;;;19.20;52.40;;;;;;4545323;31;20441;-69
2022/03/13 03:29:09;;;;;;;3.97;1.70;;;19.20;52.40;;;;;;4518808;31;20131;-69
2022/03/13 03:31:47;;;;;;;2.72;1.50;;;19.20;52.40;;;;;;4548547;31;20123;-68
2022/03/13 03:34:18;;;;;;;2.67;1.40;;;19.20;52.40;;;;;;4533369;31;20139;-69
2022/03/13 03:36:50;;;;;;;2.92;1.50;;;19.10;52.40;;;;;;4533901;31;20159;-69
2022/03/13 03:39:17;;;;;;;4.40;1.77;;;19.10;52.40;;;;;;4533713;31;20135;-68
2022/03/13 03:41:46;;;;;;;2.70;1.60;;;19.10;52.40;;;;;;4547232;31;20140;-69
2022/03/13 03:44:13;;;;;;;3.78;1.42;;;19.10;52.40;;;;;;4548266;31;20130;-69
2022/03/13 03:46:40;;;;;;;3.22;1.67;;;19.10;52.40;;;;;;4547090;31;20142;-69
2022/03/13 03:49:06;;;;;;;3.35;1.38;;;19.10;52.40;;;;;;4547948;31;20140;-68
2022/03/13 03:51:32;;;;;;;3.63;1.70;;;19.10;52.40;;;;;;4547263;31;20131;-68
2022/03/13 03:53:58;;;;;;;2.35;1.40;;;19.10;52.40;;;;;;4522427;31;20140;-69
2022/03/13 03:56:25;;;;;;;2.78;1.52;;;19.10;52.40;;;;;;4515592;31;20177;-68
2022/03/13 03:58:51;;;;;;;4.47;1.73;;;19.00;52.30;;;;;;4513775;31;20278;-69
2022/03/13 04:01:17;;;;;;;4.35;2.05;;;19.00;52.30;;;;;;4514913;31;20673;-69
2022/03/13 04:03:44;;;;;;;1.70;1.38;;;19.00;52.30;;;;;;4513753;31;20275;-69
2022/03/13 04:06:10;;;;;;;3.30;1.63;;;19.00;52.30;;;;;;4514749;31;20581;-68
2022/03/13 04:08:36;;;;;;;3.08;1.30;;;19.00;52.30;;;;;;4513945;31;20271;-69
2022/03/13 04:11:02;;;;;;;3.25;1.40;;;19.00;52.30;;;;;;4514305;31;20146;-69
2022/03/13 04:13:28;;;;;;;2.03;1.42;;;19.00;52.30;;;;;;4515476;31;20136;-68
2022/03/13 04:15:55;;;;;;;2.22;1.27;;;19.00;52.70;;;;;;4513775;31;20217;-69
2022/03/13 04:18:22;;;;;;;2.22;1.45;;;19.00;52.30;;;;;;4514561;31;20198;-69
2022/03/13 04:20:48;;;;;;;2.45;1.20;;;19.00;52.30;;;;;;4513533;31;20577;-69
2022/03/13 04:23:14;;;;;;;2.85;1.38;;;19.00;52.30;;;;;;4514509;31;20274;-68
2022/03/13 04:25:40;;;;;;;2.60;1.60;;;18.90;52.20;;;;;;4513705;31;20132;-68
2022/03/13 04:28:08;;;;;;;3.35;1.60;;;18.90;52.30;;;;;;4500473;31;20225;-69
2022/03/13 04:30:36;;;;;;;2.85;1.77;;;18.90;52.30;;;;;;4513996;31;20124;-68
2022/03/13 04:33:02;;;;;;;3.25;1.40;;;18.90;52.20;;;;;;4513412;31;20197;-69
2022/03/13 04:35:27;;;;;;;3.13;1.33;;;18.90;52.30;;;;;;4501344;31;20140;-68
2022/03/13 04:37:53;;;;;;;4.00;1.40;;;18.90;52.20;;;;;;4499991;31;20274;-69
2022/03/13 04:40:19;;;;;;;2.13;1.40;;;18.90;52.20;;;;;;4514094;31;20117;-68
2022/03/13 04:42:46;;;;;;;2.70;1.30;;;18.90;52.30;;;;;;4500323;31;20120;-69
2022/03/13 04:45:12;;;;;;;2.55;1.30;;;18.90;52.30;;;;;;4514071;31;20706;-69
2022/03/13 04:47:38;;;;;;;3.42;1.92;;;18.90;52.30;;;;;;4500371;31;20152;-69
2022/03/13 04:56:44;;;;;;;3.30;1.40;;;18.80;52.20;;;;;;4401443;30;20082;-71
2022/03/13 04:59:12;;;;;;;1.90;1.35;;;18.80;52.20;;;;;;4431833;32;20215;-71
2022/03/13 05:01:37;;;;;;;2.72;1.63;;;18.80;52.20;;;;;;4446155;32;20251;-71
2022/03/13 05:04:05;;;;;;;1.30;1.17;;;18.80;52.20;;;;;;4430731;32;20470;-71
2022/03/13 05:06:34;;;;;;;2.55;1.50;;;18.80;52.20;;;;;;4432309;32;20168;-71
2022/03/13 05:08:59;;;;;;;2.47;1.40;;;18.80;52.30;;;;;;4432568;32;20133;-71
2022/03/13 05:11:25;;;;;;;3.28;1.67;;;18.80;52.30;;;;;;4445916;32;20204;-71
2022/03/13 05:13:51;;;;;;;3.15;1.35;;;18.80;52.30;;;;;;4445856;32;20093;-70
2022/03/13 05:16:17;;;;;;;2.70;1.55;;;18.80;52.20;;;;;;4432052;32;20207;-71
2022/03/13 05:18:43;;;;;;;1.65;1.30;;;18.80;52.30;;;;;;4445781;32;20368;-71
2022/03/13 05:21:08;;;;;;;2.28;1.30;;;18.80;52.30;;;;;;4431446;32;20067;-71
2022/03/13 05:23:34;;;;;;;2.75;1.60;;;18.80;52.30;;;;;;4432083;32;20211;-71
2022/03/13 05:26:00;;;;;;;3.80;1.45;;;18.70;52.30;;;;;;4444864;32;20295;-71
2022/03/13 05:28:26;;;;;;;2.33;1.33;;;18.70;52.30;;;;;;4445138;32;20126;-71
2022/03/13 05:30:52;;;;;;;2.08;1.35;;;18.70;52.30;;;;;;4445402;32;20200;-71
2022/03/13 05:33:18;;;;;;;2.08;1.50;;;18.70;52.20;;;;;;4445811;32;20093;-71
2022/03/13 05:35:44;;;;;;;1.75;1.33;;;18.70;52.20;;;;;;4445170;32;20096;-71
2022/03/13 05:38:10;;;;;;;1.98;1.50;;;18.70;52.30;;;;;;4431832;32;20062;-71
2022/03/13 05:40:36;;;;;;;1.55;1.10;;;18.70;52.30;;;;;;4431454;32;20062;-71
2022/03/13 05:43:03;;;;;;;3.38;1.27;;;18.70;52.30;;;;;;4445357;32;20082;-71
2022/03/13 05:45:30;;;;;;;2.28;1.40;;;18.70;52.30;;;;;;4445671;32;20065;-71
2022/03/13 05:48:06;;;;;;;2.35;1.20;;;18.70;52.30;;;;;;4445437;32;20228;-71
2022/03/13 05:50:32;;;;;;;1.85;1.40;;;18.70;52.30;;;;;;4444878;32;20104;-71
2022/03/13 05:52:59;;;;;;;2.45;1.58;;;18.70;52.30;;;;;;4431364;32;20070;-71
2022/03/13 05:55:25;;;;;;;1.88;1.23;;;18.60;52.20;;;;;;4431466;32;20121;-71
2022/03/13 05:57:55;;;;;;;2.28;1.30;;;18.60;52.20;;;;;;4445527;32;20112;-70
2022/03/13 06:00:23;;;;;;;2.53;1.20;;;18.60;52.20;;;;;;4445470;32;20307;-71
2022/03/13 06:02:49;;;;;;;2.58;1.13;;;18.60;52.30;;;;;;4445037;32;20077;-71
2022/03/13 06:05:17;;;;;;;1.70;1.15;;;18.60;52.20;;;;;;4445292;32;20165;-71
2022/03/13 06:07:44;;;;;;;2.53;1.25;;;18.60;52.30;;;;;;4445294;32;20564;-71
2022/03/13 06:10:10;;;;;;;2.42;1.10;;;18.60;52.30;;;;;;4444284;32;20082;-71
2022/03/13 06:12:36;;;;;;;2.65;1.40;;;18.60;52.30;;;;;;4431359;32;20136;-71
2022/03/13 06:15:05;;;;;;;2.47;1.30;;;18.60;52.30;;;;;;4445012;32;20223;-73
2022/03/13 06:17:31;;;;;;;1.65;1.30;;;18.60;52.30;;;;;;4431212;32;20093;-71
2022/03/13 06:19:57;;;;;;;1.95;1.40;;;18.60;52.30;;;;;;4445478;32;20163;-71
2022/03/13 06:22:25;;;;;;;1.60;1.38;;;18.60;52.30;;;;;;4444842;32;20086;-70
2022/03/13 06:24:53;;;;;;;4.65;1.38;;;18.60;52.30;;;;;;4445287;32;20074;-71
2022/03/13 06:27:21;;;;;;;1.75;1.27;;;18.60;52.20;;;;;;4445051;32;20400;-71
2022/03/13 06:29:47;;;;;;;2.45;1.23;;;18.50;52.20;;;;;;4444777;32;20491;-71
2022/03/13 06:32:13;;;;;;;2.40;1.55;;;18.50;52.20;;;;;;4445141;32;20403;-71
2022/03/13 06:34:39;;;;;;;2.03;1.42;;;18.50;52.20;;;;;;4445231;32;20081;-71
2022/03/13 06:37:05;;;;;;;2.92;1.38;;;18.50;52.20;;;;;;4418145;32;20118;-71
2022/03/13 06:39:31;;;;;;;2.10;1.27;;;18.50;52.20;;;;;;4445093;32;20078;-71
2022/03/13 06:41:58;;;;;;;1.55;1.15;;;18.50;52.20;;;;;;4445143;32;20062;-71
2022/03/13 06:44:23;;;;;;;2.05;1.48;;;18.50;52.30;;;;;;4444640;32;20101;-71
2022/03/13 06:46:49;;;;;;;1.85;1.38;;;18.50;52.20;;;;;;4444892;32;20085;-71
2022/03/13 06:49:15;;;;;;;1.88;1.33;;;18.50;52.30;;;;;;4431262;32;20264;-71
2022/03/13 06:51:42;;;;;;;2.25;1.30;;;18.50;52.30;;;;;;4444637;32;20105;-71
2022/03/13 06:54:09;;;;;;;2.00;1.30;;;18.50;52.30;;;;;;4444706;32;20129;-71
2022/03/13 06:56:36;;;;;;;2.10;1.40;;;18.50;52.30;;;;;;4443326;32;20114;-71
2022/03/13 06:59:04;;;;;;;1.95;1.38;;;18.40;52.20;;;;;;4444999;32;20503;-71
2022/03/13 07:01:31;;;;;;;1.63;1.13;;;18.40;52.20;;;;;;4444852;32;20088;-71
2022/03/13 07:03:57;;;;;;;2.35;1.30;;;18.40;52.20;;;;;;4446894;32;20071;-71
2022/03/13 07:06:23;;;;;;;2.95;1.40;;;18.40;52.20;;;;;;4448118;32;20109;-71
2022/03/13 07:08:49;;;;;;;1.50;1.20;;;18.40;52.30;;;;;;4447938;32;20171;-71
2022/03/13 07:11:17;;;;;;;1.88;1.13;;;18.40;52.30;;;;;;4447887;32;20136;-71
2022/03/13 07:13:45;;;;;;;1.58;1.17;;;18.40;52.30;;;;;;4447822;32;20062;-71
2022/03/13 07:16:14;;;;;;;2.35;1.40;;;18.40;52.30;;;;;;4447802;32;20101;-71
2022/03/13 07:18:40;;;;;;;2.25;1.15;;;18.40;52.30;;;;;;4447864;32;20510;-71
2022/03/13 07:21:06;;;;;;;3.55;1.30;;;18.40;52.30;;;;;;4447456;32;20327;-71
2022/03/13 07:23:32;;;;;;;2.13;1.30;;;18.40;52.30;;;;;;4433613;32;20093;-71
2022/03/13 07:25:58;;;;;;;1.40;1.00;;;18.40;52.30;;;;;;4447298;32;20232;-71
2022/03/13 07:28:24;;;;;;;2.13;1.42;;;18.40;52.30;;;;;;4447556;32;20086;-71
2022/03/13 07:30:49;;;;;;;1.30;0.95;;;18.40;52.40;;;;;;4433657;32;20467;-71
2022/03/13 07:33:15;;;;;;;2.33;1.17;;;18.40;52.30;;;;;;4433480;32;20112;-71
2022/03/13 07:35:42;;;;;;;1.88;1.20;;;18.40;52.30;;;;;;4447580;32;20125;-71
2022/03/13 07:38:08;;;;;;;1.92;1.20;;;18.30;52.30;;;;;;4433060;32;20419;-71
2022/03/13 07:40:34;;;;;;;2.00;0.93;;;18.30;52.30;;;;;;4447007;32;20078;-71
2022/03/13 07:43:00;;;;;;;1.70;1.20;;;18.30;52.30;;;;;;4433599;32;20050;-71
2022/03/13 07:45:26;;;;;;;1.75;1.30;;;18.30;52.30;;;;;;4447468;32;20557;-71
2022/03/13 07:47:54;;;;;;;1.70;1.17;;;18.30;52.30;;;;;;4447313;32;20160;-71
2022/03/13 07:50:21;;;;;;;1.95;1.13;;;18.30;52.30;;;;;;4433814;32;20090;-71
2022/03/13 07:52:47;;;;;;;1.25;1.13;;;18.30;52.30;;;;;;4446950;32;20228;-71
2022/03/13 07:55:14;;;;;;;1.80;1.50;;;18.30;52.30;;;;;;4447094;32;20466;-71
2022/03/13 07:57:40;;;;;;;1.88;1.27;;;18.30;52.30;;;;;;4446201;32;20287;-71
2022/03/13 08:00:10;;;;;;;1.50;1.23;;;18.30;52.30;;;;;;4447081;32;20074;-70
2022/03/13 08:02:37;;;;;;;1.60;1.10;;;18.30;52.40;;;;;;4447029;32;20423;-71
2022/03/13 08:05:03;;;;;;;2.13;1.20;;;18.30;52.40;;;;;;4433130;32;20066;-71
2022/03/13 08:07:29;;;;;;;1.63;1.20;;;18.30;52.40;;;;;;4447084;32;20078;-71
2022/03/13 08:09:55;;;;;;;1.98;1.25;;;18.20;52.30;;;;;;4445616;32;20175;-70
2022/03/13 08:12:21;;;;;;;1.42;1.30;;;18.30;52.30;;;;;;4446649;32;20420;-71
2022/03/13 08:14:47;;;;;;;1.70;1.17;;;18.20;52.30;;;;;;4446653;32;20697;-71
2022/03/13 08:17:15;;;;;;;2.50;1.13;;;18.30;53.30;;;;;;4446857;32;20161;-68
2022/03/13 08:19:41;;;;;;;7.25;1.33;;;18.30;52.40;;;;;;4446440;32;20136;-68
2022/03/13 08:22:07;;;;;;;2.92;2.47;;;18.20;52.20;;;;;;4446349;32;20223;-68
2022/03/13 08:24:32;;;;;;;5.18;4.28;;;18.20;51.60;;;;;;4446510;32;20066;-68
2022/03/13 08:26:58;;;;;;;5.32;4.43;;;18.20;50.40;;;;;;4432619;32;20100;-68
2022/03/13 08:29:24;;;;;;;6.70;5.28;;;18.20;49.10;;;;;;4446618;32;20145;-69
2022/03/13 08:31:50;;;;;;;5.88;4.10;;;18.20;48.40;;;;;;4445336;32;20054;-68
2022/03/13 08:34:16;;;;;;;5.47;3.95;;;18.20;48.90;;;;;;4446588;32;20141;-69
2022/03/13 08:36:47;;;;;;;7.47;4.20;;;18.20;49.50;;;;;;4446202;32;20559;-69
2022/03/13 08:39:13;;;;;;;4.22;3.33;;;18.20;49.50;;;;;;4446545;32;20070;-69
2022/03/13 08:41:39;;;;;;;4.60;3.80;;;18.20;49.60;;;;;;4446353;32;20240;-68
2022/03/13 08:44:05;;;;;;;6.50;4.00;;;18.20;49.70;;;;;;4446153;32;20421;-69
2022/03/13 08:46:31;;;;;;;7.03;3.50;;;18.20;49.80;;;;;;4446397;32;20211;-69
2022/03/13 08:48:57;;;;;;;5.43;3.63;;;18.20;49.90;;;;;;4446287;32;20101;-69
2022/03/13 08:51:23;;;;;;;5.70;3.33;;;18.10;50.00;;;;;;4432166;32;20491;-69
2022/03/13 08:53:50;;;;;;;4.25;3.30;;;18.20;50.10;;;;;;4446218;32;20070;-69
2022/03/13 08:56:17;;;;;;;6.30;3.30;;;18.20;50.20;;;;;;4446134;32;20082;-69
2022/03/13 08:58:43;;;;;;;4.25;3.20;;;18.20;50.20;;;;;;4432388;32;20260;-69
2022/03/13 09:01:09;;;;;;;4.68;3.13;;;18.20;50.30;;;;;;4445858;32;20077;-69
2022/03/13 09:03:36;;;;;;;5.75;3.33;;;18.20;50.30;;;;;;4446219;32;20109;-69
2022/03/13 09:06:03;;;;;;;4.60;2.97;;;18.20;50.50;;;;;;4446210;32;20058;-69
2022/03/13 09:08:29;;;;;;;3.92;2.70;;;18.20;50.50;;;;;;4432058;32;20078;-70
2022/03/13 09:10:55;;;;;;;7.50;3.00;;;18.20;50.50;;;;;;4446045;32;20251;-67
2022/03/13 09:13:21;;;;;;;7.07;2.80;;;18.20;50.60;;;;;;4445908;32;20090;-68
2022/03/13 09:15:48;;;;;;;4.07;2.92;;;18.20;50.70;;;;;;4445688;32;20078;-69
2022/03/13 09:18:14;;;;;;;8.50;3.05;;;18.20;50.70;;;;;;4445956;32;20077;-69
2022/03/13 09:20:40;;;;;;;3.33;2.67;;;18.20;50.60;;;;;;4445525;32;20058;-69
2022/03/13 09:23:06;;;;;;;4.18;2.40;;;18.30;50.60;;;;;;4445357;32;20319;-69
2022/03/13 09:25:34;;;;;;;5.90;2.50;;;18.30;50.50;;;;;;4445527;32;20082;-69
2022/03/13 09:28:04;;;;;;;4.85;2.28;;;18.40;50.50;;;;;;4445809;32;20081;-69
2022/03/13 09:30:30;;;;;;;3.75;2.55;;;18.40;50.50;;;;;;4444776;32;20097;-70
2022/03/13 09:32:56;;;;;;;2.92;2.50;;;18.50;50.40;;;;;;4445400;32;20211;-70
2022/03/13 09:35:22;;;;;;;8.23;2.45;;;18.60;50.20;;;;;;4445472;32;20159;-68
2022/03/13 09:37:49;;;;;;;6.22;3.20;;;18.80;49.90;;;;;;4431538;32;20078;-69
2022/03/13 09:40:17;;;;;;;4.97;3.78;;;18.90;49.40;;;;;;4445619;32;20236;-69
2022/03/13 09:42:44;;;;;;;9.15;4.00;;;19.10;48.40;;;;;;4445543;32;20085;-69
2022/03/13 09:45:11;;;;;;;6.20;4.78;;;19.20;47.50;;;;;;4445577;32;20058;-69
2022/03/13 09:47:37;;;;;;;10.18;5.25;;;19.20;46.60;;;;;;4445360;32;20164;-69
2022/03/13 09:50:12;;;;;;;7.75;5.18;;;19.30;46.60;;;;;;4445329;32;20412;-68
2022/03/13 09:52:40;;;;;;;6.40;4.90;;;19.30;46.50;;;;;;4431343;32;20102;-69
2022/03/13 09:55:08;;;;;;;7.80;5.35;;;19.30;46.00;;;;;;4445026;32;20117;-71
2022/03/13 09:57:36;;;;;;;7.55;6.00;;;19.40;45.60;;;;;;4445310;32;20078;-68
2022/03/13 10:00:06;;;;;;;10.25;5.80;;;19.30;45.20;;;;;;4445230;32;20118;-68
2022/03/13 10:02:34;;;;;;;9.63;6.18;;;19.30;45.10;;;;;;4431374;32;20082;-69
2022/03/13 10:05:09;;;;;;;8.07;6.20;;;19.30;44.90;;;;;;4445230;32;20077;-69
2022/03/13 10:07:56;;;;;;;9.73;6.22;;;19.20;44.40;;;;;;4444236;32;20184;-70
2022/03/13 10:10:39;;;;;;;9.30;6.32;;;19.20;44.30;;;;;;4445143;32;20196;-70
2022/03/13 10:13:05;;;;;;;9.53;6.03;;;19.20;44.30;;;;;;4445306;32;20074;-69
2022/03/13 10:15:48;;;;;;;7.22;5.70;;;19.20;44.50;;;;;;4444658;32;20346;-69
2022/03/13 10:18:18;;;;;;;8.23;6.00;;;19.10;44.00;;;;;;4445060;32;20174;-69
2022/03/13 10:20:46;;;;;;;7.53;5.90;;;19.10;44.30;;;;;;4444595;32;20102;-70
2022/03/13 10:23:16;;;;;;;8.20;6.32;;;19.00;44.10;;;;;;4445021;32;20097;-69
2022/03/13 10:25:43;;;;;;;7.72;6.60;;;19.00;43.80;;;;;;4431396;32;20148;-69
2022/03/13 10:28:31;;;;;;;8.75;6.30;;;19.00;43.70;;;;;;4444954;32;20066;-69
2022/03/13 10:31:00;;;;;;;9.82;6.30;;;19.00;43.20;;;;;;4445165;32;20069;-70
2022/03/13 10:33:27;;;;;;;6.85;6.13;;;18.90;43.50;;;;;;4444640;32;20106;-70
2022/03/13 10:36:10;;;;;;;8.00;6.18;;;18.90;43.50;;;;;;4444962;32;20163;-69
2022/03/13 10:38:37;;;;;;;7.40;5.82;;;18.90;43.30;;;;;;4448306;32;20136;-70
2022/03/13 10:41:12;;;;;;;6.80;5.38;;;18.90;43.50;;;;;;4448137;32;20074;-69
2022/03/13 10:43:49;;;;;;;7.03;5.10;;;18.90;43.60;;;;;;4443365;32;20113;-69
2022/03/13 10:46:32;;;;;;;7.28;5.82;;;18.80;43.70;;;;;;4431990;32;20168;-69
2022/03/13 10:49:00;;;;;;;6.97;5.25;;;18.80;43.90;;;;;;4431172;32;20096;-69
2022/03/13 10:51:34;;;;;;;8.27;4.68;;;18.80;44.10;;;;;;4417763;32;20079;-70
2022/03/13 10:54:02;;;;;;;6.68;4.45;;;18.80;44.20;;;;;;4431729;32;21051;-70
2022/03/13 10:56:28;;;;;;;10.02;4.70;;;18.80;44.40;;;;;;4439134;32;20086;-70
2022/03/13 10:58:54;;;;;;;6.00;5.07;;;18.80;44.50;;;;;;4446685;32;20069;-69
2022/03/13 11:01:23;;;;;;;6.60;4.30;;;18.80;44.70;;;;;;4432033;32;20160;-71
2022/03/13 11:03:54;;;;;;;6.90;4.60;;;18.80;44.90;;;;;;4446965;32;20080;-72
2022/03/13 11:06:22;;;;;;;7.65;3.97;;;18.80;45.20;;;;;;4446681;32;20248;-71
2022/03/13 11:08:53;;;;;;;6.68;4.45;;;18.70;45.30;;;;;;4446995;32;20593;-70
2022/03/13 11:11:19;;;;;;;6.28;4.22;;;18.70;45.40;;;;;;4446654;32;20140;-71
2022/03/13 11:13:55;;;;;;;6.65;4.10;;;18.70;45.60;;;;;;4446663;32;20423;-69
2022/03/13 11:16:27;;;;;;;5.88;3.55;;;18.70;45.70;;;;;;4446152;32;20155;-71
2022/03/13 11:19:01;;;;;;;4.85;4.13;;;18.70;45.90;;;;;;4446295;32;20521;-70
2022/03/13 11:21:27;;;;;;;4.80;3.58;;;18.70;46.10;;;;;;4445950;32;20588;-70
2022/03/13 11:23:54;;;;;;;7.05;3.65;;;18.70;46.20;;;;;;4444685;32;20589;-70
2022/03/13 11:26:23;;;;;;;4.95;3.50;;;18.70;46.40;;;;;;4431922;32;20085;-70
2022/03/13 11:28:53;;;;;;;4.55;3.40;;;18.70;46.60;;;;;;4446094;32;20096;-70
2022/03/13 11:31:37;;;;;;;4.35;3.25;;;18.70;46.80;;;;;;4446635;32;20062;-70
2022/03/13 11:34:16;;;;;;;;;;;18.70;47.00;;;;;;4446970;32;20556;-71
2022/03/13 11:36:47;;;;;;;8.82;3.35;;;18.70;47.10;;;;;;4444522;32;19997;-71
2022/03/13 11:39:31;;;;;;;4.72;3.55;;;18.70;47.00;;;;;;4430930;32;20630;-71
2022/03/13 11:41:58;;;;;;;11.45;4.60;;;18.70;46.90;;;;;;4446280;32;20494;-72
2022/03/13 11:44:44;;;;;;;6.45;4.20;;;18.70;46.80;;;;;;4446622;32;20078;-71
2022/03/13 11:47:22;;;;;;;5.90;4.53;;;18.70;46.60;;;;;;4446302;32;20215;-71
2022/03/13 11:49:48;;;;;;;6.22;5.05;;;18.70;46.20;;;;;;4445882;32;20136;-71
2022/03/13 11:52:17;;;;;;;7.38;4.93;;;18.70;46.20;;;;;;4432102;32;20086;-71
2022/03/13 11:54:52;;;;;;;6.78;5.13;;;18.70;46.00;;;;;;4444525;32;20507;-70
2022/03/13 11:57:22;;;;;;;8.13;5.85;;;18.70;45.70;;;;;;4429410;32;20456;-71
2022/03/13 12:00:10;;;;;;;8.32;5.28;;;18.70;45.60;;;;;;4431069;32;20145;-71
2022/03/13 12:02:42;;;;;;;6.68;5.10;;;18.70;45.50;;;;;;4430285;32;20153;-71
2022/03/13 12:05:34;;;;;;;6.38;4.97;;;18.70;45.80;;;;;;4429594;32;20153;-69
2022/03/13 12:08:08;;;;;;;9.93;4.57;;;18.70;46.30;;;;;;4427390;32;20108;-70
2022/03/13 12:10:41;;;;;;;6.47;4.30;;;18.70;46.50;;;;;;4431002;32;20393;-70
2022/03/13 12:13:13;;;;;;;8.90;4.50;;;18.70;46.90;;;;;;4429011;32;20126;-70
2022/03/13 12:15:41;;;;;;;5.38;3.47;;;18.70;47.40;;;;;;4430558;32;20412;-69
2022/03/13 12:18:23;;;;;;;6.05;4.25;;;18.70;48.00;;;;;;4430399;32;20098;-68
2022/03/13 12:20:52;;;;;;;5.05;3.67;;;18.80;48.80;;;;;;4430831;32;20152;-74
2022/03/13 12:23:38;;;;;;;8.02;4.10;;;18.80;48.80;;;;;;4430250;32;20188;-70
2022/03/13 12:26:28;;;;;;;5.18;3.45;;;18.90;48.90;;;;;;4431478;32;20089;-69
2022/03/13 12:28:56;;;;;;;6.28;3.70;;;19.10;48.90;;;;;;4431228;32;20093;-69
2022/03/13 12:31:22;;;;;;;5.15;3.20;;;19.20;48.70;;;;;;4431415;32;20089;-69
2022/03/13 12:33:50;;;;;;;6.03;3.22;;;19.30;48.70;;;;;;4429888;32;20074;-69
2022/03/13 12:36:19;;;;;;;5.13;3.28;;;19.40;49.70;;;;;;4431126;32;20177;-69
2022/03/13 12:38:53;;;;;;;7.68;3.40;;;19.60;48.80;;;;;;4430545;32;20137;-70
2022/03/13 12:41:21;;;;;;;5.30;3.22;;;19.70;48.80;;;;;;4430449;32;20200;-69
2022/03/13 12:43:54;;;;;;;5.10;2.88;;;19.80;48.60;;;;;;4430206;32;20105;-69
2022/03/13 12:46:22;;;;;;;7.22;3.15;;;19.90;48.60;;;;;;4429075;32;20086;-69
2022/03/13 12:48:56;;;;;;;3.15;2.70;;;20.00;48.50;;;;;;4431086;32;20066;-67
2022/03/13 12:51:46;;;;;;;7.28;3.78;;;20.10;48.30;;;;;;4430600;32;20133;-67
2022/03/13 12:54:22;;;;;;;6.95;4.57;;;20.20;47.60;;;;;;4430107;32;20085;-68
2022/03/13 12:56:58;;;;;;;8.88;4.72;;;20.30;46.80;;;;;;4429902;32;20518;-67
2022/03/13 12:59:30;;;;;;;8.85;5.50;;;20.30;46.30;;;;;;4430790;32;20070;-67
2022/03/13 13:02:09;;;;;;;10.13;5.80;;;20.30;45.80;;;;;;4429970;32;20121;-67